Time;durP1;ratioP1;P1;durP2;ratioP2;P2;SDS_P1;SDS_P2;PMS_P1;PMS_P2;Temp;Humidity;BMP_temperature;BMP_pressure;BME280_temperature;BME280_humidity;BME280_pressure;Samples;Min_cycle;Max_cycle;Signal;HPM_P1;HPM_P2
2023/11/03 00:00:13;;;;;;;0.15;0.10;;;;;;;;;;5084307;28;20031;-74
2023/11/03 00:02:43;;;;;;;0.75;0.20;;;;;;;;;;5098380;28;20086;-76
2023/11/03 00:05:11;;;;;;;0.03;0.03;;;;;;;;;;5078941;28;20020;-76
2023/11/03 00:07:37;;;;;;;0.43;0.00;;;;;;;;;;5073474;28;20032;-77
2023/11/03 00:10:09;;;;;;;0.20;0.00;;;;;;;;;;5074477;28;20116;-76
2023/11/03 00:12:35;;;;;;;0.13;0.13;;;;;;;;;;5075235;28;20154;-76
2023/11/03 00:15:02;;;;;;;0.20;0.20;;;;;;;;;;5056408;28;20086;-76
2023/11/03 00:17:28;;;;;;;0.00;0.00;;;;;;;;;;5074711;28;20087;-76
2023/11/03 00:19:54;;;;;;;0.10;0.10;;;;;;;;;;5067185;28;20254;-76
2023/11/03 00:22:20;;;;;;;0.10;0.10;;;;;;;;;;5074099;28;20407;-75
2023/11/03 00:24:46;;;;;;;0.10;0.10;;;;;;;;;;5074406;28;20116;-76
2023/11/03 00:27:14;;;;;;;0.10;0.10;;;;;;;;;;5074354;28;20039;-75
2023/11/03 00:29:41;;;;;;;0.17;0.17;;;;;;;;;;5074670;28;20107;-76
2023/11/03 00:32:07;;;;;;;0.10;0.10;;;;;;;;;;5074880;28;20395;-76
2023/11/03 00:34:33;;;;;;;0.30;0.30;;;;;;;;;;5074717;28;20471;-77
2023/11/03 00:36:59;;;;;;;0.10;0.10;;;;;;;;;;5061589;28;20056;-77
2023/11/03 00:39:26;;;;;;;0.17;0.17;;;;;;;;;;5077519;28;20073;-76
2023/11/03 00:41:52;;;;;;;0.20;0.20;;;;;;;;;;5061329;28;20025;-76
2023/11/03 00:44:19;;;;;;;0.22;0.10;;;;;;;;;;5045989;28;20029;-76
2023/11/03 00:46:46;;;;;;;0.35;0.10;;;;;;;;;;5055712;28;20021;-77
2023/11/03 00:49:13;;;;;;;0.10;0.10;;;;;;;;;;5054527;28;20049;-76
2023/11/03 00:51:39;;;;;;;0.38;0.38;;;;;;;;;;5072915;28;20039;-76
2023/11/03 00:54:06;;;;;;;0.45;0.20;;;;;;;;;;5067389;28;20025;-76
2023/11/03 00:56:32;;;;;;;0.52;0.20;;;;;;;;;;5055025;28;20029;-76
2023/11/03 00:59:00;;;;;;;0.10;0.10;;;;;;;;;;5053756;28;20021;-77
2023/11/03 01:01:26;;;;;;;0.13;0.13;;;;;;;;;;5054017;28;20021;-76
2023/11/03 01:03:55;;;;;;;0.10;0.10;;;;;;;;;;5054024;28;20060;-76
2023/11/03 01:06:22;;;;;;;0.10;0.10;;;;;;;;;;5054286;28;20032;-77
2023/11/03 01:08:51;;;;;;;0.32;0.20;;;;;;;;;;5054327;28;20032;-77
2023/11/03 01:11:17;;;;;;;0.20;0.10;;;;;;;;;;5056483;28;20025;-77
2023/11/03 01:13:43;;;;;;;0.08;0.00;;;;;;;;;;5054404;28;20024;-76
2023/11/03 01:16:10;;;;;;;0.10;0.10;;;;;;;;;;5053979;28;20464;-76
2023/11/03 01:18:42;;;;;;;0.63;0.20;;;;;;;;;;5055665;28;20032;-77
2023/11/03 01:21:18;;;;;;;0.10;0.10;;;;;;;;;;5078665;28;20024;-76
2023/11/03 01:23:47;;;;;;;0.20;0.20;;;;;;;;;;5094808;28;20065;-77
2023/11/03 01:26:13;;;;;;;0.00;0.00;;;;;;;;;;5095266;28;20051;-76
2023/11/03 01:28:40;;;;;;;0.08;0.08;;;;;;;;;;5082217;28;20032;-76
2023/11/03 01:31:07;;;;;;;0.10;0.10;;;;;;;;;;5054209;28;20090;-76
2023/11/03 01:33:34;;;;;;;0.35;0.10;;;;;;;;;;5053590;28;20029;-76
2023/11/03 01:36:04;;;;;;;0.10;0.10;;;;;;;;;;5035770;28;20082;-76
2023/11/03 01:38:31;;;;;;;0.10;0.03;;;;;;;;;;5055439;28;20175;-77
2023/11/03 01:40:57;;;;;;;0.00;0.00;;;;;;;;;;5053986;28;20096;-77
2023/11/03 01:43:23;;;;;;;0.10;0.00;;;;;;;;;;5036789;28;20079;-76
2023/11/03 01:45:49;;;;;;;0.17;0.17;;;;;;;;;;5039289;28;20028;-76
2023/11/03 01:48:15;;;;;;;0.30;0.20;;;;;;;;;;5055317;28;20031;-76
2023/11/03 01:50:42;;;;;;;0.10;0.10;;;;;;;;;;5064180;28;20277;-77
2023/11/03 01:53:09;;;;;;;0.10;0.10;;;;;;;;;;5072892;28;20069;-77
2023/11/03 01:55:35;;;;;;;0.20;0.20;;;;;;;;;;5072858;28;20025;-76
2023/11/03 01:58:02;;;;;;;0.10;0.10;;;;;;;;;;5072621;28;20089;-76
2023/11/03 02:00:28;;;;;;;0.10;0.10;;;;;;;;;;5072957;28;20019;-77
2023/11/03 02:02:55;;;;;;;0.25;0.20;;;;;;;;;;5072169;28;20088;-76
2023/11/03 02:05:21;;;;;;;0.10;0.10;;;;;;;;;;5072589;28;20028;-76
2023/11/03 02:07:50;;;;;;;0.10;0.10;;;;;;;;;;5072826;28;20507;-76
2023/11/03 02:10:16;;;;;;;0.20;0.10;;;;;;;;;;5072778;28;20480;-76
2023/11/03 02:12:42;;;;;;;0.13;0.10;;;;;;;;;;5065586;28;20036;-77
2023/11/03 02:15:09;;;;;;;0.20;0.20;;;;;;;;;;5056088;28;20056;-77
2023/11/03 02:17:35;;;;;;;0.10;0.10;;;;;;;;;;5054355;28;20028;-76
2023/11/03 02:20:06;;;;;;;0.10;0.10;;;;;;;;;;5070882;28;20035;-76
2023/11/03 02:22:32;;;;;;;0.20;0.20;;;;;;;;;;5071846;28;20020;-76
2023/11/03 02:24:58;;;;;;;0.25;0.10;;;;;;;;;;5072674;28;20509;-75
2023/11/03 02:27:25;;;;;;;0.00;0.00;;;;;;;;;;5072573;28;20021;-76
2023/11/03 02:29:52;;;;;;;0.10;0.10;;;;;;;;;;5072083;28;20032;-76
2023/11/03 02:32:18;;;;;;;0.10;0.10;;;;;;;;;;5072613;28;20032;-75
2023/11/03 02:34:44;;;;;;;0.10;0.10;;;;;;;;;;5072934;28;20025;-76
2023/11/03 02:37:10;;;;;;;0.17;0.17;;;;;;;;;;5069974;28;20500;-76
2023/11/03 02:39:36;;;;;;;0.10;0.10;;;;;;;;;;5052566;28;20021;-76
2023/11/03 02:42:06;;;;;;;0.57;0.20;;;;;;;;;;5052825;28;20546;-77
2023/11/03 02:44:32;;;;;;;0.20;0.10;;;;;;;;;;5052741;28;20032;-76
2023/11/03 02:46:59;;;;;;;0.30;0.15;;;;;;;;;;5063527;28;20036;-75
2023/11/03 02:49:25;;;;;;;0.05;0.05;;;;;;;;;;5071642;28;20476;-77
2023/11/03 02:51:51;;;;;;;0.13;0.10;;;;;;;;;;5072853;28;20020;-76
2023/11/03 02:54:17;;;;;;;0.08;0.08;;;;;;;;;;5090757;28;20480;-77
2023/11/03 02:56:43;;;;;;;0.20;0.10;;;;;;;;;;5073797;28;20368;-77
2023/11/03 02:59:10;;;;;;;0.17;0.03;;;;;;;;;;5072559;28;20436;-76
2023/11/03 03:01:42;;;;;;;0.20;0.20;;;;;;;;;;5072101;28;20031;-76
2023/11/03 03:04:08;;;;;;;;;;;;;;;;;;5054790;28;20028;-76
2023/11/03 03:06:35;;;;;;;0.10;0.10;;;;;;;;;;5074497;28;19958;-75
2023/11/03 03:09:01;;;;;;;0.20;0.20;;;;;;;;;;5072442;28;20021;-77
2023/11/03 03:11:27;;;;;;;0.30;0.20;;;;;;;;;;5072393;28;20025;-76
2023/11/03 03:13:53;;;;;;;0.30;0.10;;;;;;;;;;5072418;28;20112;-77
2023/11/03 03:16:20;;;;;;;0.10;0.10;;;;;;;;;;5072007;28;20387;-75
2023/11/03 03:18:46;;;;;;;0.38;0.20;;;;;;;;;;5071562;28;20028;-76
2023/11/03 03:21:14;;;;;;;3.70;0.50;;;;;;;;;;5071945;28;20371;-77
2023/11/03 03:23:40;;;;;;;2.15;0.40;;;;;;;;;;5071241;28;20450;-76
2023/11/03 03:26:06;;;;;;;1.30;0.30;;;;;;;;;;5071498;28;20035;-76
2023/11/03 03:28:33;;;;;;;1.17;0.50;;;;;;;;;;5071490;28;20086;-76
2023/11/03 03:30:59;;;;;;;0.20;0.20;;;;;;;;;;5064735;28;20168;-77
2023/11/03 03:33:26;;;;;;;0.20;0.20;;;;;;;;;;5071685;28;20032;-75
2023/11/03 03:35:52;;;;;;;0.30;0.30;;;;;;;;;;5071527;28;20028;-77
2023/11/03 03:38:18;;;;;;;0.10;0.10;;;;;;;;;;5069004;28;20025;-76
2023/11/03 03:40:44;;;;;;;0.50;0.20;;;;;;;;;;5072302;28;20410;-76
2023/11/03 03:43:10;;;;;;;0.35;0.20;;;;;;;;;;5075094;28;20096;-77
2023/11/03 03:45:36;;;;;;;2.22;0.50;;;;;;;;;;5070629;28;20029;-74
2023/11/03 03:48:06;;;;;;;0.22;0.22;;;;;;;;;;5052116;28;20032;-74
2023/11/03 03:50:32;;;;;;;0.40;0.25;;;;;;;;;;5076157;28;20020;-74
2023/11/03 03:52:58;;;;;;;2.13;0.35;;;;;;;;;;5074843;28;20029;-74
2023/11/03 03:55:24;;;;;;;1.27;0.20;;;;;;;;;;5074914;28;20025;-75
2023/11/03 03:57:50;;;;;;;0.95;0.28;;;;;;;;;;5074737;28;20017;-73
2023/11/03 04:00:18;;;;;;;0.32;0.20;;;;;;;;;;5074699;28;20021;-74
2023/11/03 04:02:44;;;;;;;0.22;0.20;;;;;;;;;;5057038;28;20028;-72
2023/11/03 04:05:10;;;;;;;0.52;0.20;;;;;;;;;;5075250;28;20029;-73
2023/11/03 04:07:36;;;;;;;0.10;0.10;;;;;;;;;;5075368;28;20024;-73
2023/11/03 04:10:04;;;;;;;0.30;0.30;;;;;;;;;;5075260;28;20029;-73
2023/11/03 04:12:30;;;;;;;0.20;0.20;;;;;;;;;;5076250;28;20098;-74
2023/11/03 04:14:56;;;;;;;0.73;0.32;;;;;;;;;;5075888;28;20502;-74
2023/11/03 04:17:22;;;;;;;0.17;0.15;;;;;;;;;;5077268;28;20043;-73
2023/11/03 04:19:49;;;;;;;0.77;0.20;;;;;;;;;;5078057;28;20021;-74
2023/11/03 04:22:15;;;;;;;0.55;0.45;;;;;;;;;;5056890;28;20024;-73
2023/11/03 04:24:41;;;;;;;0.38;0.30;;;;;;;;;;5075172;28;20108;-74
2023/11/03 04:27:07;;;;;;;0.22;0.20;;;;;;;;;;5074841;28;20074;-73
2023/11/03 04:29:33;;;;;;;0.30;0.20;;;;;;;;;;5056936;28;20013;-74
2023/11/03 04:31:59;;;;;;;0.77;0.50;;;;;;;;;;5075196;28;20499;-74
2023/11/03 04:34:25;;;;;;;1.42;0.50;;;;;;;;;;5075452;28;20025;-74
2023/11/03 04:36:52;;;;;;;0.88;0.32;;;;;;;;;;5074876;28;20029;-73
2023/11/03 04:39:18;;;;;;;0.43;0.20;;;;;;;;;;5074566;28;20028;-73
2023/11/03 04:41:44;;;;;;;0.85;0.50;;;;;;;;;;5056210;28;20049;-76
2023/11/03 04:44:10;;;;;;;1.05;0.50;;;;;;;;;;5070397;28;20406;-77
2023/11/03 04:46:38;;;;;;;3.00;0.60;;;;;;;;;;5075024;28;20020;-77
2023/11/03 04:49:05;;;;;;;0.55;0.43;;;;;;;;;;5078390;28;20430;-79
2023/11/03 04:51:32;;;;;;;1.35;0.40;;;;;;;;;;5082227;28;20020;-76
2023/11/03 04:53:58;;;;;;;0.35;0.30;;;;;;;;;;5096599;28;20036;-77
2023/11/03 04:56:25;;;;;;;2.10;0.38;;;;;;;;;;5057170;28;20042;-77
2023/11/03 04:58:51;;;;;;;0.43;0.40;;;;;;;;;;5056892;28;20114;-77
2023/11/03 05:01:19;;;;;;;0.22;0.22;;;;;;;;;;5037066;28;20037;-78
2023/11/03 05:03:45;;;;;;;0.65;0.55;;;;;;;;;;5054655;28;20021;-77
2023/11/03 05:06:12;;;;;;;1.15;0.40;;;;;;;;;;5054652;28;20053;-77
2023/11/03 05:08:38;;;;;;;2.38;0.52;;;;;;;;;;5055687;28;20028;-76
2023/11/03 05:11:04;;;;;;;1.02;0.52;;;;;;;;;;5054920;28;20032;-78
2023/11/03 05:13:30;;;;;;;0.77;0.60;;;;;;;;;;5054421;28;20029;-77
2023/11/03 05:15:56;;;;;;;1.65;0.55;;;;;;;;;;5071644;28;20025;-76
2023/11/03 05:18:23;;;;;;;2.28;0.57;;;;;;;;;;5073780;28;20016;-76
2023/11/03 05:20:49;;;;;;;1.50;0.52;;;;;;;;;;5074119;28;20013;-77
2023/11/03 05:23:15;;;;;;;0.52;0.40;;;;;;;;;;5083624;28;20038;-77
2023/11/03 05:25:41;;;;;;;0.30;0.30;;;;;;;;;;5074704;28;20032;-77
2023/11/03 05:28:07;;;;;;;0.70;0.30;;;;;;;;;;5091962;28;20016;-77
2023/11/03 05:30:35;;;;;;;1.38;0.20;;;;;;;;;;5097865;28;20041;-77
2023/11/03 05:33:02;;;;;;;2.17;0.47;;;;;;;;;;5083321;28;20035;-77
2023/11/03 05:35:28;;;;;;;1.40;0.50;;;;;;;;;;5061306;28;20017;-76
2023/11/03 05:37:54;;;;;;;2.17;0.60;;;;;;;;;;5058323;28;20082;-77
2023/11/03 05:40:21;;;;;;;3.00;0.85;;;;;;;;;;5053710;28;20040;-77
2023/11/03 05:42:47;;;;;;;2.63;0.30;;;;;;;;;;5053642;28;20024;-77
2023/11/03 05:45:13;;;;;;;2.58;0.85;;;;;;;;;;5038808;28;20029;-77
2023/11/03 05:47:39;;;;;;;0.60;0.43;;;;;;;;;;5053282;28;20384;-78
2023/11/03 05:50:05;;;;;;;1.42;0.40;;;;;;;;;;5043028;28;20032;-77
2023/11/03 05:52:31;;;;;;;0.30;0.30;;;;;;;;;;5073026;28;20031;-77
2023/11/03 05:54:58;;;;;;;0.68;0.60;;;;;;;;;;5076207;28;20032;-78
2023/11/03 05:57:24;;;;;;;2.13;0.52;;;;;;;;;;5072843;28;20073;-76
2023/11/03 05:59:50;;;;;;;2.85;0.88;;;;;;;;;;5072920;28;20017;-76
2023/11/03 06:02:16;;;;;;;5.65;0.70;;;;;;;;;;5072771;28;20622;-77
2023/11/03 06:04:42;;;;;;;3.60;0.85;;;;;;;;;;5067025;28;20033;-78
2023/11/03 06:07:09;;;;;;;4.10;0.80;;;;;;;;;;5072793;28;20024;-76
2023/11/03 06:09:37;;;;;;;2.88;0.82;;;;;;;;;;5072549;28;20039;-77
2023/11/03 06:12:04;;;;;;;1.40;0.50;;;;;;;;;;5037812;28;20432;-76
2023/11/03 06:14:30;;;;;;;4.97;1.13;;;;;;;;;;5053112;28;20063;-76
2023/11/03 06:16:56;;;;;;;2.03;0.75;;;;;;;;;;5069666;28;20483;-76
2023/11/03 06:19:22;;;;;;;2.55;0.80;;;;;;;;;;5079517;28;20017;-75
2023/11/03 06:21:48;;;;;;;1.85;0.55;;;;;;;;;;5087056;28;20077;-75
2023/11/03 06:24:15;;;;;;;2.75;0.90;;;;;;;;;;5070760;28;20013;-75
2023/11/03 06:26:41;;;;;;;0.75;0.35;;;;;;;;;;5052093;28;20040;-76
2023/11/03 06:29:07;;;;;;;0.70;0.50;;;;;;;;;;5068437;28;20021;-75
2023/11/03 06:31:34;;;;;;;1.27;0.40;;;;;;;;;;5062862;28;20021;-75
2023/11/03 06:34:01;;;;;;;1.60;0.50;;;;;;;;;;5056199;28;20108;-77
2023/11/03 06:36:27;;;;;;;1.40;0.60;;;;;;;;;;5054198;28;20067;-76
2023/11/03 06:38:54;;;;;;;0.47;0.20;;;;;;;;;;5067027;28;20021;-76
2023/11/03 06:41:20;;;;;;;1.65;0.50;;;;;;;;;;5073878;28;20017;-76
2023/11/03 06:43:46;;;;;;;0.30;0.30;;;;;;;;;;5071982;28;20039;-77
2023/11/03 06:46:12;;;;;;;1.85;0.55;;;;;;;;;;5072533;28;20078;-77
2023/11/03 06:48:38;;;;;;;2.97;0.70;;;;;;;;;;5074027;28;20031;-76
2023/11/03 06:51:11;;;;;;;3.60;0.95;;;;;;;;;;5056578;28;20050;-76
2023/11/03 06:53:37;;;;;;;2.13;0.60;;;;;;;;;;5066335;28;20543;-76
2023/11/03 06:56:04;;;;;;;0.82;0.40;;;;;;;;;;5082010;28;20180;-77
2023/11/03 06:58:32;;;;;;;2.65;0.60;;;;;;;;;;5092100;28;20387;-76
2023/11/03 07:00:59;;;;;;;0.50;0.50;;;;;;;;;;5073295;28;20025;-74
2023/11/03 07:03:25;;;;;;;1.90;0.43;;;;;;;;;;5072943;28;20032;-75
2023/11/03 07:05:52;;;;;;;0.50;0.50;;;;;;;;;;5055299;28;20028;-72
2023/11/03 07:08:18;;;;;;;1.88;0.68;;;;;;;;;;5071760;28;20056;-77
2023/11/03 07:10:44;;;;;;;0.82;0.50;;;;;;;;;;5073371;28;20376;-76
2023/11/03 07:13:11;;;;;;;1.20;0.60;;;;;;;;;;5070010;28;20020;-76
2023/11/03 07:15:37;;;;;;;2.15;0.70;;;;;;;;;;5085550;28;20455;-79
2023/11/03 07:18:03;;;;;;;3.20;1.00;;;;;;;;;;5074543;28;20016;-77
2023/11/03 07:20:30;;;;;;;4.30;2.05;;;;;;;;;;5071430;28;20055;-78
2023/11/03 07:22:56;;;;;;;3.53;2.30;;;;;;;;;;5093617;28;20070;-77
2023/11/03 07:25:25;;;;;;;7.45;1.40;;;;;;;;;;5083046;28;20021;-69
2023/11/03 07:27:51;;;;;;;3.20;0.98;;;;;;;;;;5077022;28;20387;-71
2023/11/03 07:30:17;;;;;;;2.10;0.90;;;;;;;;;;5076318;28;20020;-71
2023/11/03 07:32:44;;;;;;;3.70;0.90;;;;;;;;;;5074708;28;20077;-72
2023/11/03 07:35:11;;;;;;;3.80;1.40;;;;;;;;;;5076027;28;20209;-71
2023/11/03 07:37:38;;;;;;;0.88;0.57;;;;;;;;;;5057671;28;20031;-70
2023/11/03 07:40:05;;;;;;;2.38;0.68;;;;;;;;;;5074661;28;20019;-71
2023/11/03 07:42:31;;;;;;;1.95;0.73;;;;;;;;;;5075781;28;20555;-70
2023/11/03 07:44:57;;;;;;;2.40;1.20;;;;;;;;;;5075246;28;20392;-71
2023/11/03 07:47:23;;;;;;;2.13;0.80;;;;;;;;;;5075074;28;20016;-72
2023/11/03 07:49:50;;;;;;;2.47;0.75;;;;;;;;;;5074840;28;20040;-70
2023/11/03 07:52:17;;;;;;;2.28;0.77;;;;;;;;;;5080312;28;20032;-70
2023/11/03 07:54:43;;;;;;;4.63;1.20;;;;;;;;;;5080904;28;20509;-70
2023/11/03 07:57:09;;;;;;;0.90;0.40;;;;;;;;;;5075312;28;20099;-70
2023/11/03 07:59:35;;;;;;;1.27;0.45;;;;;;;;;;5075129;28;20387;-72
2023/11/03 08:02:02;;;;;;;1.40;0.70;;;;;;;;;;5075037;28;20043;-70
2023/11/03 08:04:28;;;;;;;1.40;0.60;;;;;;;;;;5057310;28;20121;-71
2023/11/03 08:06:55;;;;;;;0.80;0.43;;;;;;;;;;5075739;28;20387;-72
2023/11/03 08:09:21;;;;;;;4.45;0.90;;;;;;;;;;5075559;28;20499;-70
2023/11/03 08:11:47;;;;;;;3.33;0.80;;;;;;;;;;5075255;28;20056;-70
2023/11/03 08:14:13;;;;;;;1.30;0.55;;;;;;;;;;5075556;28;20031;-71
2023/11/03 08:16:44;;;;;;;4.90;0.70;;;;;;;;;;5076088;28;20031;-71
2023/11/03 08:19:12;;;;;;;2.45;0.65;;;;;;;;;;5075884;28;20028;-71
2023/11/03 08:21:41;;;;;;;3.38;0.70;;;;;;;;;;5080295;28;20137;-71
2023/11/03 08:24:10;;;;;;;1.48;0.68;;;;;;;;;;5080222;28;20031;-71
2023/11/03 08:26:37;;;;;;;1.13;0.65;;;;;;;;;;5067544;28;20428;-71
2023/11/03 08:29:03;;;;;;;2.75;0.90;;;;;;;;;;5073777;28;20115;-71
2023/11/03 08:31:30;;;;;;;4.05;1.13;;;;;;;;;;5074534;28;20065;-70
2023/11/03 08:33:56;;;;;;;1.83;0.70;;;;;;;;;;5075067;28;20440;-72
2023/11/03 08:36:26;;;;;;;3.95;1.00;;;;;;;;;;5074814;28;20029;-72
2023/11/03 08:38:52;;;;;;;1.15;0.75;;;;;;;;;;5073953;28;20029;-72
2023/11/03 08:41:21;;;;;;;3.15;0.77;;;;;;;;;;5066432;28;20384;-73
2023/11/03 08:43:47;;;;;;;2.92;1.00;;;;;;;;;;5051073;28;20380;-74
2023/11/03 08:46:13;;;;;;;4.18;0.68;;;;;;;;;;5073652;28;20021;-72
2023/11/03 08:48:43;;;;;;;4.18;1.63;;;;;;;;;;5072934;28;20111;-74
2023/11/03 08:51:09;;;;;;;2.30;0.98;;;;;;;;;;5082966;28;20506;-74
2023/11/03 08:53:35;;;;;;;1.73;0.95;;;;;;;;;;5081195;28;20439;-73
2023/11/03 08:56:01;;;;;;;3.10;0.80;;;;;;;;;;5074091;28;20041;-74
2023/11/03 08:58:30;;;;;;;5.40;0.93;;;;;;;;;;5098448;28;20025;-74
2023/11/03 09:00:56;;;;;;;2.28;0.95;;;;;;;;;;5081689;28;20041;-75
2023/11/03 09:03:22;;;;;;;2.08;0.60;;;;;;;;;;5075190;28;20028;-73
2023/11/03 09:05:49;;;;;;;2.25;0.73;;;;;;;;;;5066756;28;20076;-73
2023/11/03 09:08:15;;;;;;;5.55;1.55;;;;;;;;;;5073901;28;20036;-73
2023/11/03 09:10:42;;;;;;;2.17;0.57;;;;;;;;;;5075060;28;20032;-74
2023/11/03 09:13:08;;;;;;;2.35;0.63;;;;;;;;;;5077919;28;20020;-75
2023/11/03 09:15:34;;;;;;;3.03;0.90;;;;;;;;;;5074683;28;20028;-73
2023/11/03 09:18:00;;;;;;;0.75;0.60;;;;;;;;;;5074317;28;20442;-74
2023/11/03 09:20:27;;;;;;;4.80;1.00;;;;;;;;;;5055904;28;20017;-74
2023/11/03 09:22:53;;;;;;;3.60;0.70;;;;;;;;;;5079760;28;20024;-73
2023/11/03 09:25:19;;;;;;;2.50;0.98;;;;;;;;;;5076569;28;20021;-73
2023/11/03 09:27:45;;;;;;;3.92;1.05;;;;;;;;;;5072445;28;20074;-73
2023/11/03 09:30:11;;;;;;;4.07;1.00;;;;;;;;;;5066043;28;20356;-73
2023/11/03 09:32:38;;;;;;;0.80;0.80;;;;;;;;;;5065159;28;20450;-74
2023/11/03 09:35:04;;;;;;;5.15;0.98;;;;;;;;;;5073361;28;20097;-74
2023/11/03 09:37:31;;;;;;;2.17;0.65;;;;;;;;;;5053781;28;20480;-74
2023/11/03 09:40:01;;;;;;;3.35;1.00;;;;;;;;;;5054835;28;20453;-73
2023/11/03 09:42:27;;;;;;;3.65;0.60;;;;;;;;;;5070806;28;20065;-73
2023/11/03 09:44:54;;;;;;;2.15;1.52;;;;;;;;;;5071154;28;20023;-73
2023/11/03 09:47:20;;;;;;;3.20;0.80;;;;;;;;;;5067988;28;20502;-73
2023/11/03 09:49:46;;;;;;;1.48;0.68;;;;;;;;;;5072141;28;20066;-74
2023/11/03 09:52:13;;;;;;;3.47;1.30;;;;;;;;;;5050625;28;20021;-75
2023/11/03 09:54:39;;;;;;;1.98;0.70;;;;;;;;;;5072826;28;20020;-74
2023/11/03 09:57:09;;;;;;;5.18;1.02;;;;;;;;;;5074841;28;20017;-75
2023/11/03 09:59:36;;;;;;;6.22;1.00;;;;;;;;;;5073284;28;20387;-72
2023/11/03 10:02:09;;;;;;;3.38;1.02;;;;;;;;;;5074054;28;20021;-73
2023/11/03 10:04:38;;;;;;;5.00;1.10;;;;;;;;;;5071831;28;20372;-74
2023/11/03 10:07:05;;;;;;;6.30;1.08;;;;;;;;;;5073698;28;20048;-73
2023/11/03 10:09:32;;;;;;;4.85;1.05;;;;;;;;;;5071871;28;20122;-73
2023/11/03 10:11:59;;;;;;;2.20;0.80;;;;;;;;;;5072897;28;20478;-74
2023/11/03 10:14:25;;;;;;;2.97;0.98;;;;;;;;;;5062785;28;20025;-74
2023/11/03 10:16:51;;;;;;;4.80;1.48;;;;;;;;;;5068729;28;20028;-75
2023/11/03 10:19:21;;;;;;;3.40;1.17;;;;;;;;;;5066059;28;20024;-73
2023/11/03 10:21:49;;;;;;;3.20;1.20;;;;;;;;;;5054626;28;20031;-73
2023/11/03 10:24:16;;;;;;;2.40;1.30;;;;;;;;;;5072205;28;20020;-74
2023/11/03 10:26:42;;;;;;;4.45;1.10;;;;;;;;;;5055363;28;20119;-73
2023/11/03 10:29:08;;;;;;;3.03;1.05;;;;;;;;;;5072718;28;20025;-74
2023/11/03 10:31:34;;;;;;;3.78;0.80;;;;;;;;;;5088922;28;20033;-73
2023/11/03 10:34:01;;;;;;;2.50;0.63;;;;;;;;;;5091948;28;20119;-73
2023/11/03 10:36:28;;;;;;;3.75;1.02;;;;;;;;;;5091758;28;20031;-74
2023/11/03 10:38:54;;;;;;;3.30;0.93;;;;;;;;;;5055295;28;20074;-73
2023/11/03 10:41:21;;;;;;;6.78;0.90;;;;;;;;;;5068799;28;20105;-74
2023/11/03 10:43:50;;;;;;;2.35;1.13;;;;;;;;;;5064558;28;20025;-74
2023/11/03 10:46:21;;;;;;;1.35;0.82;;;;;;;;;;5070199;28;20365;-74
2023/11/03 10:48:51;;;;;;;3.72;1.13;;;;;;;;;;5067285;28;20031;-73
2023/11/03 10:51:37;;;;;;;1.95;0.90;;;;;;;;;;5077597;28;20037;-73
2023/11/03 10:54:22;;;;;;;2.05;1.08;;;;;;;;;;5076706;28;20055;-73
2023/11/03 10:56:48;;;;;;;1.70;0.80;;;;;;;;;;5072477;28;20093;-74
2023/11/03 10:59:15;;;;;;;1.13;0.80;;;;;;;;;;5067879;28;20023;-75
2023/11/03 11:01:48;;;;;;;2.60;1.15;;;;;;;;;;5077314;28;20035;-74
2023/11/03 11:04:18;;;;;;;5.40;0.90;;;;;;;;;;5061590;28;20025;-73
2023/11/03 11:06:55;;;;;;;2.30;1.05;;;;;;;;;;5060766;28;20066;-74
2023/11/03 11:09:24;;;;;;;3.38;0.88;;;;;;;;;;5070823;28;20029;-73
2023/11/03 11:11:51;;;;;;;5.75;1.15;;;;;;;;;;5068949;28;20059;-72
2023/11/03 11:14:24;;;;;;;4.47;1.17;;;;;;;;;;5072485;28;20052;-78
2023/11/03 11:16:54;;;;;;;7.07;1.00;;;;;;;;;;5051834;28;20020;-73
2023/11/03 11:19:24;;;;;;;7.10;1.05;;;;;;;;;;5069482;28;20021;-74
2023/11/03 11:21:50;;;;;;;6.68;1.27;;;;;;;;;;5070632;28;20229;-74
2023/11/03 11:24:22;;;;;;;2.85;0.93;;;;;;;;;;5054285;28;20074;-74
2023/11/03 11:26:49;;;;;;;;;;;;;;;;;;5055584;28;20523;-74
2023/11/03 11:29:26;;;;;;;4.60;1.33;;;;;;;;;;5080413;28;19965;-74
2023/11/03 11:31:52;;;;;;;3.30;1.13;;;;;;;;;;5042467;28;20033;-76
2023/11/03 11:34:21;;;;;;;5.07;1.23;;;;;;;;;;5065938;28;20021;-75
2023/11/03 11:36:47;;;;;;;3.15;1.10;;;;;;;;;;5072230;28;20028;-74
2023/11/03 11:39:17;;;;;;;2.35;1.38;;;;;;;;;;5080318;28;20108;-74
2023/11/03 11:41:48;;;;;;;2.60;1.27;;;;;;;;;;5064732;28;20013;-74
2023/11/03 11:44:18;;;;;;;2.13;0.85;;;;;;;;;;5072613;28;20013;-75
2023/11/03 11:46:45;;;;;;;2.22;0.85;;;;;;;;;;5065492;28;20039;-74
2023/11/03 11:49:13;;;;;;;2.08;1.10;;;;;;;;;;5058768;28;20094;-74
2023/11/03 11:51:39;;;;;;;2.50;1.10;;;;;;;;;;5067697;28;20032;-74
2023/11/03 11:54:10;;;;;;;2.70;0.95;;;;;;;;;;5064780;28;20025;-73
2023/11/03 11:56:36;;;;;;;3.67;1.20;;;;;;;;;;5074234;28;20033;-73
2023/11/03 11:59:08;;;;;;;4.30;0.95;;;;;;;;;;5073655;28;20025;-72
2023/11/03 12:01:34;;;;;;;2.67;1.15;;;;;;;;;;5064524;28;20045;-74
2023/11/03 12:04:04;;;;;;;3.83;1.20;;;;;;;;;;5076408;28;20020;-73
2023/11/03 12:06:31;;;;;;;0.93;0.90;;;;;;;;;;5077383;28;20028;-75
2023/11/03 12:08:59;;;;;;;3.97;0.80;;;;;;;;;;5095729;28;20020;-75
2023/11/03 12:11:26;;;;;;;8.75;1.05;;;;;;;;;;5092075;28;20029;-74
2023/11/03 12:13:52;;;;;;;1.50;0.85;;;;;;;;;;5084841;28;20088;-74
2023/11/03 12:16:21;;;;;;;5.65;1.00;;;;;;;;;;5076680;28;20025;-73
2023/11/03 12:18:50;;;;;;;2.47;0.85;;;;;;;;;;5077557;28;20024;-73
2023/11/03 12:21:16;;;;;;;5.25;1.13;;;;;;;;;;5078238;28;20032;-75
2023/11/03 12:23:43;;;;;;;4.57;1.23;;;;;;;;;;5081101;28;20028;-72
2023/11/03 12:26:10;;;;;;;5.32;1.38;;;;;;;;;;5086963;28;20074;-72
2023/11/03 12:28:38;;;;;;;1.95;1.02;;;;;;;;;;5070429;28;20510;-73
2023/11/03 12:31:04;;;;;;;3.13;1.08;;;;;;;;;;5058177;28;20032;-73
2023/11/03 12:33:36;;;;;;;2.63;0.75;;;;;;;;;;5052635;28;20381;-74
2023/11/03 12:36:02;;;;;;;5.03;0.93;;;;;;;;;;5076717;28;20497;-74
2023/11/03 12:38:29;;;;;;;3.75;1.17;;;;;;;;;;5075091;28;20033;-73
2023/11/03 12:41:19;;;;;;;3.65;1.00;;;;;;;;;;5072681;28;20027;-74
2023/11/03 12:43:54;;;;;;;2.80;0.73;;;;;;;;;;5051462;28;20040;-73
2023/11/03 12:46:20;;;;;;;2.78;0.90;;;;;;;;;;5069553;28;20044;-72
2023/11/03 12:48:47;;;;;;;2.03;0.75;;;;;;;;;;5065816;28;20024;-73
2023/11/03 12:51:13;;;;;;;4.25;1.00;;;;;;;;;;5070674;28;20260;-74
2023/11/03 12:53:46;;;;;;;5.13;1.27;;;;;;;;;;5075372;28;20024;-73
2023/11/03 12:56:15;;;;;;;3.40;1.60;;;;;;;;;;5066594;28;20028;-73
2023/11/03 12:58:43;;;;;;;2.90;1.20;;;;;;;;;;5078176;28;19997;-75
2023/11/03 13:01:09;;;;;;;4.53;1.27;;;;;;;;;;5057557;28;20471;-74
2023/11/03 13:03:35;;;;;;;1.52;1.08;;;;;;;;;;5078251;28;20025;-79
2023/11/03 13:06:05;;;;;;;3.88;1.60;;;;;;;;;;5078643;28;20028;-74
2023/11/03 13:08:32;;;;;;;4.97;0.98;;;;;;;;;;5086793;28;20048;-75
2023/11/03 13:10:59;;;;;;;1.58;0.90;;;;;;;;;;5060568;28;20091;-74
2023/11/03 13:13:25;;;;;;;4.40;1.15;;;;;;;;;;5077563;28;20375;-74
2023/11/03 13:15:51;;;;;;;1.15;0.98;;;;;;;;;;5074310;28;20054;-75
2023/11/03 13:18:17;;;;;;;3.25;1.23;;;;;;;;;;5075141;28;20012;-75
2023/11/03 13:20:46;;;;;;;3.83;0.98;;;;;;;;;;5073325;28;20021;-74
2023/11/03 13:23:14;;;;;;;3.70;1.10;;;;;;;;;;5071899;28;20024;-74
2023/11/03 13:25:41;;;;;;;2.78;0.65;;;;;;;;;;5074596;28;20031;-75
2023/11/03 13:28:07;;;;;;;5.10;0.85;;;;;;;;;;5070310;28;20072;-76
2023/11/03 13:30:33;;;;;;;2.05;1.73;;;;;;;;;;5083135;28;20039;-74
2023/11/03 13:33:00;;;;;;;3.40;0.98;;;;;;;;;;5071345;28;20033;-74
2023/11/03 13:35:27;;;;;;;3.50;1.20;;;;;;;;;;5046069;28;20030;-75
2023/11/03 13:37:53;;;;;;;3.90;1.17;;;;;;;;;;5072531;28;20017;-75
2023/11/03 13:40:20;;;;;;;1.23;0.88;;;;;;;;;;5074333;28;20519;-75
2023/11/03 13:42:48;;;;;;;1.30;0.77;;;;;;;;;;5054970;28;20040;-74
2023/11/03 13:45:14;;;;;;;2.78;0.93;;;;;;;;;;5067145;28;20102;-75
2023/11/03 13:47:40;;;;;;;1.67;0.73;;;;;;;;;;5071303;28;20028;-75
2023/11/03 13:50:09;;;;;;;3.78;1.05;;;;;;;;;;5064007;28;20396;-75
2023/11/03 13:52:36;;;;;;;2.03;1.30;;;;;;;;;;5061009;28;20031;-74
2023/11/03 13:55:04;;;;;;;2.80;0.82;;;;;;;;;;5075559;28;20031;-76
2023/11/03 13:57:31;;;;;;;2.42;1.10;;;;;;;;;;5047683;28;20021;-73
2023/11/03 13:59:57;;;;;;;1.13;0.77;;;;;;;;;;5064447;28;20383;-74
2023/11/03 14:02:24;;;;;;;1.48;0.80;;;;;;;;;;5067448;28;20024;-74
2023/11/03 14:04:50;;;;;;;1.75;0.98;;;;;;;;;;5064718;28;20048;-74
2023/11/03 14:07:16;;;;;;;1.40;0.80;;;;;;;;;;5065440;28;20024;-75
2023/11/03 14:09:44;;;;;;;1.80;0.70;;;;;;;;;;5075072;28;20042;-77
2023/11/03 14:12:11;;;;;;;0.90;0.80;;;;;;;;;;5081687;28;20024;-75
2023/11/03 14:14:38;;;;;;;1.60;0.75;;;;;;;;;;5065754;28;20048;-76
2023/11/03 14:17:08;;;;;;;2.15;0.80;;;;;;;;;;5065412;28;20047;-73
2023/11/03 14:19:34;;;;;;;1.67;0.90;;;;;;;;;;5052113;28;20399;-75
2023/11/03 14:22:01;;;;;;;2.15;0.90;;;;;;;;;;5071442;28;20343;-75
2023/11/03 14:24:27;;;;;;;2.85;1.08;;;;;;;;;;5054573;28;20102;-74
2023/11/03 14:26:53;;;;;;;3.08;0.90;;;;;;;;;;5062686;28;20035;-75
2023/11/03 14:29:19;;;;;;;1.48;0.82;;;;;;;;;;5074395;28;20032;-74
2023/11/03 14:31:46;;;;;;;3.05;0.93;;;;;;;;;;5071763;28;20019;-75
2023/11/03 14:34:15;;;;;;;3.05;0.90;;;;;;;;;;5048649;28;20024;-74
2023/11/03 14:36:45;;;;;;;3.42;0.93;;;;;;;;;;5066135;28;20028;-75
2023/11/03 14:39:14;;;;;;;2.10;0.70;;;;;;;;;;5064976;28;20029;-76
2023/11/03 14:41:41;;;;;;;3.45;1.00;;;;;;;;;;5067945;28;20044;-75